Bay Area Logo

San Jose, CA Single Family Real Estate Listings

1336 Total Real Estate Listings * Click on table heading to sort
Date Posted Property Type Style Address Price Living Area Lot Size Price/Sq Ft.
2018-03-27 Single Family Ranch 425 Avenida Arboles San Jose, CA 95123 $799,000 1,123 sq. ft. 4,792 sq. ft. $711
2018-03-27 Single Family 116 Southsun Court San Jose, CA 95138 $849,000 1,355 sq. ft. 5,227 sq. ft. $627
2018-03-27 Single Family 5815 Arapaho Drive San Jose, CA 95123 $899,000 1,037 sq. ft. 6,098 sq. ft. $867
2018-03-27 Single Family Ranch 1560 Roseanna Drive San Jose, CA 95118 $1,150,000 1,590 sq. ft. 6,534 sq. ft. $723
2018-03-27 Single Family Mediterranean 1240 Coolidge Avenue San Jose, CA 95125 $3,498,890 3,795 sq. ft. 8,276 sq. ft. $922
2018-03-26 Single Family Traditional 357 Avenida Arboles San Jose, CA 95123 $998,000 2,482 sq. ft. 6,970 sq. ft. $402
2018-03-26 Single Family 6984 Polvadero Drive San Jose, CA 95119 $899,888 1,508 sq. ft. 6,534 sq. ft. $597
2018-03-26 Single Family 1071 Ellis Avenue San Jose, CA 95125 $2,350,000 3,025 sq. ft. 9,148 sq. ft. $777
2018-03-26 Single Family Ranch 2571 Westgate Avenue San Jose, CA 95125 $3,699,500 4,053 sq. ft. 13,504 sq. ft. $913
2018-03-26 Single Family 336 Los Pinos Way San Jose, CA 95119 $999,950 2,365 sq. ft. 7,405 sq. ft. $423
2018-03-26 Single Family 1561 Whitton Avenue San Jose, CA 95116 $619,500 888 sq. ft. 5,227 sq. ft. $698
2018-03-26 Single Family 4755 Bordwell Drive San Jose, CA 95118 $999,950 1,360 sq. ft. 6,098 sq. ft. $735
2018-03-26 Single Family 669 11th Street San Jose, CA 95112 $549,888 617 sq. ft. 3,485 sq. ft. $891
2018-03-26 Single Family 2185 Inman Way San Jose, CA 95122 $639,888 960 sq. ft. 4,792 sq. ft. $667
2018-03-26 Single Family Traditional 6146 Escondido Court San Jose, CA 95119 $989,000 1,791 sq. ft. 6,970 sq. ft. $552
2018-03-26 Single Family 444 15th Street San Jose, CA 95112 $1,150,000 1,620 sq. ft. 6,534 sq. ft. $710
2018-03-26 Single Family 1723 Silverwood Drive San Jose, CA 95124 $1,600,000 2,560 sq. ft. 6,098 sq. ft. $625
2018-03-26 Single Family 443 Laswell Avenue San Jose, CA 95128 $599,000 641 sq. ft. 3,920 sq. ft. $934
2018-03-26 Single Family 1802 Lanai Avenue San Jose, CA 95122 $765,000 1,040 sq. ft. 6,098 sq. ft. $736
2018-03-26 Single Family Contemporary 2185 Inman Way San Jose, CA 95122 $639,888 960 sq. ft. 4,792 sq. ft. $667
2018-03-26 Single Family Contemporary 2466 Old Elm Court San Jose, CA 95132 $958,800 1,234 sq. ft. 6,534 sq. ft. $777
2018-03-26 Single Family 4927 Kingston Way San Jose, CA 95130 $1,788,000 1,801 sq. ft. 6,534 sq. ft. $993
2018-03-26 Single Family 2531 Scottsdale Drive San Jose, CA 95148 $1,049,000 2,113 sq. ft. 6,098 sq. ft. $496
2018-03-26 Single Family Ranch 21670 Fortini Road San Jose, CA 95120 $1,399,000 1,875 sq. ft. 40,075 sq. ft. $746
2018-03-26 Single Family 2226 Pacina Drive San Jose, CA 95116 $725,000 2,200 sq. ft. 6,098 sq. ft. $330
2018-03-25 Single Family 532 Cozy Drive San Jose, CA 95123 $1,099,000 2,384 sq. ft. 6,098 sq. ft. $461
2018-03-25 Single Family 3005 Valley Of Hearts Delight Place San Jose, CA 95136 $1,175,000 2,256 sq. ft. 2,614 sq. ft. $521
2018-03-24 Single Family 2230 Golden Dew Circle San Jose, CA 95121 $829,000 1,542 sq. ft. 6,098 sq. ft. $538
2018-03-24 Single Family 1188 Spring Hill Way San Jose, CA 95120 $1,839,000 3,266 sq. ft. 8,276 sq. ft. $563
2018-03-23 Single Family 513 Savstrom Way San Jose, CA 95111 $788,888 1,452 sq. ft. 7,841 sq. ft. $543
2018-03-23 Single Family Ranch 4001 Holly Drive San Jose, CA 95127 $925,000 2,035 sq. ft. 9,583 sq. ft. $455
2018-03-23 Single Family 1025 Heatherfield Lane San Jose, CA 95132 $1,100,000 1,550 sq. ft. 6,098 sq. ft. $710
2018-03-23 Single Family 523 Bluefield Ct San Jose, CA 95136 $895,000 1,713 sq. ft. 7,841 sq. ft. $522
2018-03-23 Single Family 420 Via Primavera Drive San Jose, CA 95111 $799,000 1,678 sq. ft. 3,049 sq. ft. $476
2018-03-23 Single Family Traditional 205 Rayos Del Sol Drive San Jose, CA 95116 $890,888 2,041 sq. ft. 3,485 sq. ft. $436
2018-03-23 Single Family 1965 University Way San Jose, CA 95126 $1,599,000 1,984 sq. ft. 8,712 sq. ft. $806
2018-03-23 Single Family Ranch 658 Daniel Way San Jose, CA 95128 $1,089,900 1,343 sq. ft. 7,841 sq. ft. $812
2018-03-23 Single Family Contemporary 6353 Bancroft Way San Jose, CA 95129 $1,999,000 1,273 sq. ft. 6,534 sq. ft. $1,570
2018-03-23 Single Family Cottage 830 Jackson Street San Jose, CA 95112 $799,000 1,092 sq. ft. 4,356 sq. ft. $732
2018-03-23 Single Family Traditional 3152 Percivale Drive San Jose, CA 95127 $1,299,950 3,067 sq. ft. 10,019 sq. ft. $424
2018-03-23 Single Family 6531 Springpath Lane San Jose, CA 95120 $1,499,000 2,177 sq. ft. 7,405 sq. ft. $689
2018-03-23 Single Family 523 Bluefield Court San Jose, CA 95136 $895,000 1,713 sq. ft. 7,405 sq. ft. $522
2018-03-23 Single Family 724 17th Street San Jose, CA 95112 $900,000 1,368 sq. ft. 5,663 sq. ft. $658
2018-03-23 Single Family Ranch 1925 Wonderama Drive San Jose, CA 95148 $636,000 1,189 sq. ft. 6,970 sq. ft. $535
2018-03-23 Single Family 922 Foothill Drive San Jose, CA 95123 $899,000 1,903 sq. ft. 10,454 sq. ft. $472
2018-03-23 Single Family Ranch 3190 San Clemente Avenue San Jose, CA 95118 $1,099,000 1,600 sq. ft. 6,970 sq. ft. $687
2018-03-23 Single Family 1385 Kinsport Lane San Jose, CA 95120 $1,299,000 1,873 sq. ft. 7,841 sq. ft. $694
2018-03-23 Single Family Mediterranean 20715 Mountain Drive San Jose, CA 95120 $2,595,000 4,700 sq. ft. 57,935 sq. ft. $552
2018-03-23 Single Family Ranch 3190 San Clemente Avenue San Jose, CA 95118 $1,099,000 1,600 sq. ft. 6,970 sq. ft. $687
2018-03-23 Single Family Ranch 7028 Via Serena San Jose, CA 95139 $939,900 1,383 sq. ft. 6,098 sq. ft. $680
2018-03-22 Single Family 5581 Country Club Parkway San Jose, CA 95138 $2,595,000 4,299 sq. ft. 19,166 sq. ft. $604
2018-03-22 Single Family Traditional 1777 Rigoletto Drive San Jose, CA 95122 $649,888 1,232 sq. ft. 5,227 sq. ft. $528
2018-03-22 Single Family Ranch 2656 Camino Del Rey San Jose, CA 95132 $980,000 1,372 sq. ft. 6,098 sq. ft. $714
2018-03-22 Single Family Traditional 3025 Zion Ln San Jose, CA 95132 $988,000 1,393 sq. ft. 6,098 sq. ft. $709
2018-03-22 Single Family 1427 San Tomas Aquino Road San Jose, CA 95130 $999,950 1,303 sq. ft. 6,970 sq. ft. $767
2018-03-22 Single Family Ranch 1862 Geneva Street San Jose, CA 95124 $1,225,000 1,660 sq. ft. 8,276 sq. ft. $738
2018-03-22 Single Family 2282 Bentley Ridge Drive San Jose, CA 95138 $2,100,000 3,016 sq. ft. 20,038 sq. ft. $696
2018-03-22 Single Family 5197 Tomahawk Drive San Jose, CA 95136 $779,950 1,358 sq. ft. 6,970 sq. ft. $574
2018-03-22 Single Family 3812 Whinney Place Way San Jose, CA 95121 $849,950 1,478 sq. ft. 5,227 sq. ft. $575
2018-03-22 Single Family 3112 Capewood Lane San Jose, CA 95132 $1,125,000 1,408 sq. ft. 6,098 sq. ft. $799
2018-03-22 Single Family 5244 Rafton Drive San Jose, CA 95124 $1,399,000 2,111 sq. ft. 9,148 sq. ft. $663
2018-03-22 Single Family 3148 Cortona Drive San Jose, CA 95135 $1,475,000 2,547 sq. ft. 4,792 sq. ft. $579
2018-03-22 Single Family 196 Goularte Way San Jose, CA 95116 $568,000 1,275 sq. ft. 3,485 sq. ft. $445
2018-03-22 Single Family 403 12th Street San Jose, CA 95112 $750,000 1,092 sq. ft. 5,663 sq. ft. $687
2018-03-22 Single Family 4074 Forestbrook Way San Jose, CA 95111 $849,000 2,040 sq. ft. 6,098 sq. ft. $416
2018-03-22 Single Family 769 Calero Avenue San Jose, CA 95123 $949,000 1,777 sq. ft. 6,534 sq. ft. $534
2018-03-22 Single Family 1373 Santa Paula Avenue San Jose, CA 95110 $988,000 1,775 sq. ft. 5,227 sq. ft. $557
2018-03-22 Single Family 3904 Wellington Square San Jose, CA 95136 $1,225,000 1,860 sq. ft. 6,098 sq. ft. $659
2018-03-22 Single Family 3554 Meadowlands Lane San Jose, CA 95135 $1,699,000 2,683 sq. ft. 13,939 sq. ft. $633
2018-03-22 Single Family Farm House 2155 Dry Creek Road San Jose, CA 95124 $4,050,000 6,423 sq. ft. 24,829 sq. ft. $631
2018-03-22 Single Family 6232 Royal Oak Court San Jose, CA 95123 $1,150,000 1,501 sq. ft. 20,038 sq. ft. $766
2018-03-22 Single Family 572 Lanfair Drive San Jose, CA 95136 $1,179,000 2,554 sq. ft. 7,405 sq. ft. $462
2018-03-22 Single Family Contemporary 4580 Encanto Way San Jose, CA 95135 $1,618,000 2,473 sq. ft. 6,970 sq. ft. $654
2018-03-22 Single Family 2019 Malden Avenue San Jose, CA 95122 $599,000 1,061 sq. ft. 3,485 sq. ft. $565
2018-03-22 Single Family Ranch 270 Esteban Way San Jose, CA 95119 $999,888 2,010 sq. ft. 6,098 sq. ft. $497
2018-03-21 Single Family Ranch 5954 Sorrel Avenue San Jose, CA 95123 $1,049,950 2,274 sq. ft. 6,534 sq. ft. $462
2018-03-21 Single Family 3605 Warner Drive San Jose, CA 95127 $1,199,000 2,654 sq. ft. 16,117 sq. ft. $452
2018-03-21 Single Family 476 Sioux Lane San Jose, CA 95123 $899,900 1,345 sq. ft. 6,970 sq. ft. $669
2018-03-21 Single Family 702 Pelleas Lane San Jose, CA 95127 $930,000 1,584 sq. ft. 9,583 sq. ft. $587
2018-03-21 Single Family 6456 Guadalupe Mines Road San Jose, CA 95120 $2,795,000 3,857 sq. ft. 54,014 sq. ft. $725
2018-03-21 Single Family 3347 Mount Vista Drive San Jose, CA 95127 $689,000 1,161 sq. ft. 4,792 sq. ft. $593
2018-03-21 Single Family 2391 Summer Street San Jose, CA 95116 $719,000 1,272 sq. ft. 3,920 sq. ft. $565
2018-03-21 Single Family Ranch 702 Pelleas Ln San Jose, CA 95127 $930,000 1,584 sq. ft. 9,148 sq. ft. $587
2018-03-21 Single Family 1471 Cherry Avenue San Jose, CA 95125 $2,199,000 2,550 sq. ft. 10,890 sq. ft. $862
2018-03-21 Single Family 3541 Columbine Drive San Jose, CA 95127 $899,999 2,006 sq. ft. 6,098 sq. ft. $449
2018-03-21 Single Family 2660 Brahms Avenue San Jose, CA 95122 $648,000 1,316 sq. ft. 5,227 sq. ft. $492
2018-03-21 Single Family 231 Vista Avenue San Jose, CA 95127 $798,888 1,032 sq. ft. 10,019 sq. ft. $774
2018-03-21 Single Family 502 War Admiral Avenue San Jose, CA 95111 $769,000 1,120 sq. ft. 5,663 sq. ft. $687
2018-03-21 Single Family 3487 Ramstad Drive San Jose, CA 95127 $899,000 6,100 sq. ft. 65,340 sq. ft. $147
2018-03-21 Single Family 6034 Palm Springs Circle San Jose, CA 95123 $949,000 1,496 sq. ft. 6,098 sq. ft. $634
2018-03-21 Single Family 1411 Santa Fe Drive San Jose, CA 95118 $950,000 1,080 sq. ft. 6,098 sq. ft. $880
2018-03-21 Single Family 2592 Minuet Drive San Jose, CA 95131 $1,330,000 2,120 sq. ft. 3,920 sq. ft. $627
2018-03-21 Single Family Traditional 503 Chinook Lane San Jose, CA 95123 $999,888 1,525 sq. ft. 5,663 sq. ft. $656
2018-03-21 Single Family Mediterranean 11325 Chula Vista Avenue San Jose, CA 95127 $1,460,000 3,272 sq. ft. 20,473 sq. ft. $446
2018-03-21 Single Family 1533 San Ardo Drive San Jose, CA 95125 $1,499,000 1,707 sq. ft. 7,841 sq. ft. $878
2018-03-21 Single Family Traditional 1539 Darlene Avenue San Jose, CA 95125 $1,500,000 1,745 sq. ft. 6,098 sq. ft. $860
2018-03-21 Single Family 1557 Peregrino Way San Jose, CA 95125 $2,448,000 3,865 sq. ft. 13,939 sq. ft. $633
2018-03-21 Single Family 3317 Farthing Way San Jose, CA 95132 $988,000 1,412 sq. ft. 6,098 sq. ft. $700
2018-03-21 Single Family Traditional 1423 Piedmont Rd San Jose, CA 95132 $1,188,000 1,446 sq. ft. 6,970 sq. ft. $822
2018-03-21 Single Family 1517 Hervey Lane San Jose, CA 95125 $1,139,000 1,570 sq. ft. 8,712 sq. ft. $725
2018-03-21 Single Family Mediterranean 5002 Kingston Way San Jose, CA 95130 $1,499,000 1,354 sq. ft. 6,970 sq. ft. $1,107
2018-03-21 Single Family 1233 Randol Avenue San Jose, CA 95126 $1,899,000 2,129 sq. ft. 13,504 sq. ft. $892
2018-03-21 Single Family English 5002 Kingston Way San Jose, CA 95130 $1,499,000 1,354 sq. ft. 6,970 sq. ft. $1,107
2018-03-21 Single Family Ranch 2441 Carlton Avenue San Jose, CA 95124 $1,398,000 1,286 sq. ft. 6,534 sq. ft. $1,087
2018-03-21 Single Family 5901 Tandera Avenue San Jose, CA 95123 $999,000 1,495 sq. ft. 6,098 sq. ft. $668
2018-03-21 Single Family Contemporary 230 Herlong Avenue San Jose, CA 95123 $889,000 1,617 sq. ft. 5,663 sq. ft. $550
2018-03-21 Single Family 3317 Farthing Way San Jose, CA 95132 $988,000 1,412 sq. ft. 6,098 sq. ft. $700
2018-03-20 Single Family 5279 War Wagon Drive San Jose, CA 95136 $988,000 2,053 sq. ft. 6,098 sq. ft. $481
2018-03-20 Single Family 1084 Kelly Drive San Jose, CA 95129 $1,388,000 1,258 sq. ft. 6,534 sq. ft. $1,103
2018-03-20 Single Family 475 Feldspar Drive San Jose, CA 95111 $649,000 1,132 sq. ft. 5,663 sq. ft. $573
2018-03-20 Single Family Traditional 447 Fontanelle Drive San Jose, CA 95111 $1,049,000 2,633 sq. ft. 6,098 sq. ft. $398
2018-03-20 Single Family 124 Willard Avenue San Jose, CA 95126 $1,498,000 2,661 sq. ft. 6,534 sq. ft. $563
2018-03-20 Single Family 2646 Gerald Way San Jose, CA 95125 $1,299,000 2,147 sq. ft. 8,712 sq. ft. $605
2018-03-20 Single Family 1058 Saddlewood Drive San Jose, CA 95121 $850,000 1,657 sq. ft. 5,227 sq. ft. $513
2018-03-20 Single Family 560 Edelweiss Drive San Jose, CA 95136 $939,000 1,424 sq. ft. 6,098 sq. ft. $659
2018-03-20 Single Family 8326 Pinotage Court San Jose, CA 95135 $995,000 1,545 sq. ft. 7,405 sq. ft. $644
2018-03-20 Single Family 1423 Piedmont Road San Jose, CA 95132 $1,188,000 1,446 sq. ft. 6,970 sq. ft. $822
2018-03-20 Single Family Ranch 5053 Willow Estate San Jose, CA 95135 $995,000 1,507 sq. ft. 6,534 sq. ft. $660
2018-03-20 Single Family Traditional 358 Roan Street San Jose, CA 95123 $1,149,000 2,193 sq. ft. 8,276 sq. ft. $524
2018-03-20 Single Family 2177 Barrett Avenue San Jose, CA 95124 $1,199,000 1,691 sq. ft. 9,583 sq. ft. $709
2018-03-20 Single Family Ranch 4903 Doyle Road San Jose, CA 95129 $1,788,000 1,977 sq. ft. 13,068 sq. ft. $904
2018-03-20 Single Family 183 Sun Blossom Drive San Jose, CA 95123 $799,000 1,132 sq. ft. 6,970 sq. ft. $706
2018-03-20 Single Family 1565 Endicott Drive San Jose, CA 95122 $799,999 1,619 sq. ft. 5,663 sq. ft. $494
2018-03-20 Single Family 1534 Osprey Court San Jose, CA 95127 $569,000 800 sq. ft. 6,098 sq. ft. $711
2018-03-20 Single Family Bungalow 1017 Michigan Avenue San Jose, CA 95125 $1,799,850 2,013 sq. ft. 7,841 sq. ft. $894
2018-03-20 Single Family 446 Porter Lane San Jose, CA 95127 $999,888 2,360 sq. ft. 8,276 sq. ft. $424
2018-03-20 Single Family Mediterranean 520 Villa Centre Way San Jose, CA 95128 $1,260,000 1,739 sq. ft. 3,485 sq. ft. $725
2018-03-20 Single Family 6319 Menlo Drive San Jose, CA 95120 $1,100,000 1,477 sq. ft. 6,098 sq. ft. $745
2018-03-20 Single Family 2452 Nightingale Drive San Jose, CA 95125 $1,299,000 1,508 sq. ft. 11,761 sq. ft. $861
2018-03-20 Single Family Traditional 6114 Calle Esperanza San Jose, CA 95120 $1,500,000 2,215 sq. ft. 7,841 sq. ft. $677
2018-03-20 Single Family Contemporary 1501 Monteval Place San Jose, CA 95120 $1,580,000 2,705 sq. ft. 8,276 sq. ft. $584
2018-03-20 Single Family 5925 Hosta Lane San Jose, CA 95124 $1,599,000 2,271 sq. ft. 13,939 sq. ft. $704
2018-03-20 Single Family 430 Snyder Avenue San Jose, CA 95125 $1,650,000 2,015 sq. ft. 7,405 sq. ft. $819
2018-03-20 Single Family 1857 Thyme Creek San Jose, CA 95120 $1,688,000 2,393 sq. ft. 3,485 sq. ft. $705
2018-03-20 Single Family Traditional 1285 Rio Hondo Drive San Jose, CA 95120 $1,800,000 2,960 sq. ft. 8,712 sq. ft. $608
2018-03-20 Single Family 3340 Country Leaf Court San Jose, CA 95132 $1,030,000 1,411 sq. ft. 3,485 sq. ft. $730
2018-03-20 Single Family 1124 Macias Lane San Jose, CA 95120 $2,450,000 3,780 sq. ft. 7,405 sq. ft. $648
2018-03-20 Single Family 14421 Highgrove Court San Jose, CA 95127 $615,000 960 sq. ft. 5,227 sq. ft. $641
2018-03-20 Single Family 10438 Layton Way San Jose, CA 95127 $775,000 1,131 sq. ft. 6,970 sq. ft. $685
2018-03-20 Single Family Ranch 6083 Paseo Pueblo Drive San Jose, CA 95120 $1,288,000 1,767 sq. ft. 8,276 sq. ft. $729
2018-03-20 Single Family 1037 Miller Avenue San Jose, CA 95129 $1,699,000 1,133 sq. ft. 6,970 sq. ft. $1,500
2018-03-20 Single Family 7221 Via Maria San Jose, CA 95139 $849,000 1,308 sq. ft. 8,276 sq. ft. $649
2018-03-20 Single Family 120 Plympton Court San Jose, CA 95139 $948,888 1,822 sq. ft. 6,098 sq. ft. $521
2018-03-20 Single Family 7256 Martwood Way San Jose, CA 95120 $998,000 1,470 sq. ft. 3,049 sq. ft. $679
2018-03-20 Single Family Ranch 2510 Lost Oaks Drive San Jose, CA 95124 $1,488,000 1,412 sq. ft. 6,534 sq. ft. $1,054
2018-03-20 Single Family 3306 Yuba Avenue San Jose, CA 95117 $1,598,000 2,257 sq. ft. 6,970 sq. ft. $708
2018-03-20 Single Family Ranch 429 Ariel Drive San Jose, CA 95123 $890,999 1,223 sq. ft. 7,841 sq. ft. $729
2018-03-20 Single Family 1102 Willowhaven Drive San Jose, CA 95126 $898,000 1,518 sq. ft. 3,920 sq. ft. $592
2018-03-20 Single Family Bungalow 1488 Martin Avenue San Jose, CA 95126 $975,000 1,050 sq. ft. 7,841 sq. ft. $929
2018-03-20 Single Family 1930 Naglee Avenue San Jose, CA 95126 $998,888 1,553 sq. ft. 6,534 sq. ft. $643
2018-03-20 Single Family Contemporary 5243 Apennines Circle San Jose, CA 95138 $1,698,000 2,916 sq. ft. 6,098 sq. ft. $582
2018-03-20 Single Family 1075 Bentoak Lane San Jose, CA 95129 $2,199,000 2,112 sq. ft. 6,098 sq. ft. $1,041
2018-03-19 Single Family Contemporary 4085 Rose Avenue San Jose, CA 95127 $950,000 1,673 sq. ft. 6,970 sq. ft. $568
2018-03-19 Single Family 250 Burning Tree Drive San Jose, CA 95119 $959,950 1,694 sq. ft. 6,098 sq. ft. $567
2018-03-19 Single Family Contemporary 2653 Glen Ferguson Circle San Jose, CA 95148 $1,039,000 2,533 sq. ft. 6,534 sq. ft. $410
2018-03-19 Single Family 1163 Fleetwood Lane San Jose, CA 95120 $1,385,000 1,925 sq. ft. 6,098 sq. ft. $719
2018-03-19 Single Family 3593 Cobbert Drive San Jose, CA 95148 $1,288,000 2,182 sq. ft. 8,276 sq. ft. $590
2018-03-19 Single Family Victorian 455 San Pedro Street San Jose, CA 95110 $798,888 1,092 sq. ft. 4,792 sq. ft. $732
2018-03-19 Single Family 2563 New Jersey Avenue San Jose, CA 95124 $1,299,000 1,707 sq. ft. 6,098 sq. ft. $761
2018-03-19 Single Family 3474 Mount Prieta Drive San Jose, CA 95127 $749,000 1,692 sq. ft. 5,663 sq. ft. $443
2018-03-19 Single Family 3282 San Rivas Drive San Jose, CA 95148 $888,000 1,336 sq. ft. 6,098 sq. ft. $665
2018-03-19 Single Family 360 S Cypress Ave San Jose, CA 95117 $1,398,000 1,680 sq. ft. 10,019 sq. ft. $832
2018-03-19 Single Family 2627 La Mirada Drive San Jose, CA 95125 $1,499,900 1,584 sq. ft. 6,534 sq. ft. $947
2018-03-19 Single Family Ranch 1080 Phelps Avenue San Jose, CA 95117 $1,300,000 1,542 sq. ft. 6,970 sq. ft. $843
2018-03-19 Single Family 2429 Walnut Grove Avenue San Jose, CA 95128 $1,348,000 1,682 sq. ft. 7,841 sq. ft. $801
2018-03-19 Single Family Ranch 1901 Mcbain Avenue San Jose, CA 95125 $1,495,000 1,644 sq. ft. 10,019 sq. ft. $909
2018-03-19 Single Family 1269 Lynn Avenue San Jose, CA 95122 $585,888 1,200 sq. ft. 5,663 sq. ft. $488
2018-03-19 Single Family 3828 Dottielyn Avenue San Jose, CA 95111 $699,000 1,215 sq. ft. 5,227 sq. ft. $575
2018-03-19 Single Family Ranch 2377 Renfield Way San Jose, CA 95148 $825,000 1,457 sq. ft. 6,098 sq. ft. $566
2018-03-19 Single Family Traditional 1832 Flood Drive San Jose, CA 95124 $1,275,000 1,328 sq. ft. 6,534 sq. ft. $960
2018-03-19 Single Family 1665 Klipspringer Drive San Jose, CA 95124 $1,450,000 1,910 sq. ft. 3,920 sq. ft. $759
2018-03-18 Single Family 1711 Willowhurst Avenue San Jose, CA 95125 $1,699,950 1,601 sq. ft. 6,970 sq. ft. $1,062
2018-03-18 Single Family 152 Sunnyslope Avenue San Jose, CA 95127 $699,000 1,190 sq. ft. 6,534 sq. ft. $587
2018-03-17 Single Family Ranch 3292 Quinto Way San Jose, CA 95124 $848,000 1,060 sq. ft. 5,227 sq. ft. $800
2018-03-17 Single Family Contemporary 6060 Montalvo Drive San Jose, CA 95123 $850,000 1,076 sq. ft. 6,098 sq. ft. $790
2018-03-17 Single Family 3321 Pepper Tree Lane San Jose, CA 95127 $699,950 1,075 sq. ft. 5,227 sq. ft. $651
2018-03-17 Single Family 3026 Creek Estates Court San Jose, CA 95135 $1,229,000 2,255 sq. ft. 10,454 sq. ft. $545
2018-03-16 Single Family 2055 Alameda Way San Jose, CA 95126 $1,395,000 2,859 sq. ft. 5,227 sq. ft. $488
2018-03-16 Single Family 242 Arbor Valley Drive San Jose, CA 95119 $899,000 1,308 sq. ft. 6,098 sq. ft. $687
2018-03-16 Single Family 318 Colville Drive San Jose, CA 95123 $950,000 1,675 sq. ft. 6,098 sq. ft. $567
2018-03-16 Single Family 766 2nd Street San Jose, CA 95112 $888,888 1,791 sq. ft. 8,712 sq. ft. $496
2018-03-16 Single Family 521 South Park Dr San Jose, CA 95129 $1,875,000 2,239 sq. ft. 6,098 sq. ft. $837
2018-03-16 Single Family 5177 Manxwood Place San Jose, CA 95111 $749,000 1,091 sq. ft. 6,534 sq. ft. $687
2018-03-16 Single Family 2618 Pendragon Lane San Jose, CA 95116 $789,000 1,683 sq. ft. 4,792 sq. ft. $469
2018-03-16 Single Family 2016 Edgegate Drive San Jose, CA 95122 $849,900 1,692 sq. ft. 3,920 sq. ft. $502
2018-03-16 Single Family 1496 Hillsdale Avenue San Jose, CA 95118 $899,950 1,266 sq. ft. 6,098 sq. ft. $711
2018-03-16 Single Family 5202 Shadow Estates San Jose, CA 95135 $1,119,000 1,876 sq. ft. 7,405 sq. ft. $596
2018-03-16 Single Family 521 Park Drive San Jose, CA 95129 $1,875,000 2,239 sq. ft. 6,098 sq. ft. $837
2018-03-16 Single Family 1508 Constanso Way San Jose, CA 95129 $1,598,000 1,570 sq. ft. 7,405 sq. ft. $1,018
2018-03-16 Single Family 4718 Williams Road San Jose, CA 95129 $1,950,000 2,009 sq. ft. 6,098 sq. ft. $971
2018-03-16 Single Family 15865 Alta Vista Way San Jose, CA 95127 $1,398,800 3,206 sq. ft. 9,148 sq. ft. $436
2018-03-16 Single Family Custom; Farm House 1901 Cabana Drive San Jose, CA 95125 $3,200,000 3,843 sq. ft. 9,583 sq. ft. $833
2018-03-16 Single Family Traditional 15035 Stratford Drive San Jose, CA 95124 $1,100,000 1,073 sq. ft. 8,712 sq. ft. $1,025
2018-03-16 Single Family 4102 Rosenbaum Avenue San Jose, CA 95136 $699,900 1,442 sq. ft. 6,098 sq. ft. $485
2018-03-16 Single Family 6152 Mancuso Street San Jose, CA 95120 $1,850,000 3,347 sq. ft. 8,276 sq. ft. $553
2018-03-16 Single Family Traditional 119 N. 33rd Street San Jose, CA 95116 $849,000 1,718 sq. ft. 9,148 sq. ft. $494
2018-03-16 Single Family 6253 Gunter Way San Jose, CA 95123 $984,000 1,550 sq. ft. 6,098 sq. ft. $635
2018-03-16 Single Family Ranch 3410 Sagewood Lane San Jose, CA 95132 $988,888 1,713 sq. ft. 6,098 sq. ft. $577
2018-03-16 Single Family 2715 Longford Drive San Jose, CA 95132 $1,049,000 1,478 sq. ft. 6,098 sq. ft. $710
2018-03-16 Single Family 3275 Sagewood Lane San Jose, CA 95132 $1,098,890 1,397 sq. ft. 6,098 sq. ft. $787
2018-03-16 Single Family 6282 Mayo Drive San Jose, CA 95123 $998,888 1,475 sq. ft. 7,405 sq. ft. $677
2018-03-15 Single Family 3761 Chenlan Court San Jose, CA 95121 $1,439,000 2,710 sq. ft. 9,148 sq. ft. $531
2018-03-15 Single Family Contemporary 1708 Arbor Drive San Jose, CA 95125 $1,250,000 1,470 sq. ft. 6,970 sq. ft. $850
2018-03-15 Single Family Contemporary 2558 Pantalis Court San Jose, CA 95132 $1,130,000 1,530 sq. ft. 6,534 sq. ft. $739
2018-03-15 Single Family Traditional 1769 Cape Jasmine Place San Jose, CA 95133 $1,279,000 2,124 sq. ft. 9,148 sq. ft. $602
2018-03-15 Single Family 1659 Willowmont Avenue San Jose, CA 95124 $998,000 1,280 sq. ft. 6,098 sq. ft. $780
2018-03-15 Single Family 1771 Lucretia Avenue San Jose, CA 95122 $895,950 1,763 sq. ft. 3,049 sq. ft. $508
2018-03-15 Single Family Ranch 4934 Bel Escou Drive San Jose, CA 95124 $1,399,000 1,568 sq. ft. 8,712 sq. ft. $892
2018-03-15 Single Family Contemporary 918 Hedlund Court San Jose, CA 95123 $1,199,000 2,237 sq. ft. 7,405 sq. ft. $536
2018-03-15 Single Family 1381 Niagara Drive San Jose, CA 95130 $1,250,000 1,144 sq. ft. 6,098 sq. ft. $1,093
2018-03-15 Single Family Ranch 1562 Tobias Drive San Jose, CA 95118 $1,149,000 1,294 sq. ft. 6,534 sq. ft. $888
2018-03-15 Single Family 240 Hedding Street San Jose, CA 95112 $749,000 922 sq. ft. 6,098 sq. ft. $812
2018-03-15 Single Family Bungalow 119 33rd Street San Jose, CA 95116 $849,000 1,718 sq. ft. 9,148 sq. ft. $494
2018-03-15 Single Family 6231 Gunter Way San Jose, CA 95123 $899,950 1,223 sq. ft. 6,098 sq. ft. $736
2018-03-15 Single Family Ranch 5491 Saint Laurent Court San Jose, CA 95127 $998,888 2,151 sq. ft. 7,841 sq. ft. $464
2018-03-15 Single Family 1974 Harmil Way San Jose, CA 95125 $1,249,890 1,541 sq. ft. 6,970 sq. ft. $811
2018-03-15 Single Family 1096 Queensbridge Way San Jose, CA 95120 $1,898,000 3,109 sq. ft. 10,454 sq. ft. $610
2018-03-15 Single Family Contemporary 5030 Emiline Drive San Jose, CA 95124 $1,575,000 1,908 sq. ft. 6,098 sq. ft. $825
2018-03-15 Single Family Traditional 997 Julian Street San Jose, CA 95112 $838,888 1,416 sq. ft. 3,920 sq. ft. $592
2018-03-15 Single Family Contemporary 6129 Banner Drive San Jose, CA 95123 $1,049,000 1,933 sq. ft. 9,583 sq. ft. $543
2018-03-15 Single Family 1040 Summerwood Court San Jose, CA 95132 $1,198,000 1,698 sq. ft. 7,841 sq. ft. $706
2018-03-15 Single Family 346 Gardenia Drive San Jose, CA 95123 $1,250,000 2,484 sq. ft. 4,356 sq. ft. $503
2018-03-15 Single Family Traditional 2039 Silence Drive San Jose, CA 95148 $1,388,000 3,668 sq. ft. 9,583 sq. ft. $378
2018-03-15 Single Family 4330 Blackford Avenue San Jose, CA 95129 $1,499,000 1,226 sq. ft. 6,534 sq. ft. $1,223
2018-03-15 Single Family Traditional 4330 Blackford Ave San Jose, CA 95129 $1,499,000 1,226 sq. ft. 6,534 sq. ft. $1,223
2018-03-15 Single Family Ranch 3315 Pepper Tree Lane San Jose, CA 95127 $780,000 1,075 sq. ft. 4,792 sq. ft. $726
2018-03-15 Single Family Spanish 10797 Miguelita Road San Jose, CA 95127 $1,499,500 2,911 sq. ft. 49,223 sq. ft. $515
2018-03-14 Single Family Craftsman; Traditional 114 Austin Court San Jose, CA 95110 $828,000 1,279 sq. ft. 4,792 sq. ft. $647
2018-03-14 Single Family 349 Rayos Del Sol Drive San Jose, CA 95116 $889,800 2,222 sq. ft. 3,049 sq. ft. $400
2018-03-14 Single Family 28 Cheltenham Way San Jose, CA 95139 $899,888 1,457 sq. ft. 6,534 sq. ft. $618
2018-03-14 Single Family 947 Paula Street San Jose, CA 95126 $1,250,000 1,798 sq. ft. 5,663 sq. ft. $695
2018-03-14 Single Family 684 9th Street San Jose, CA 95112 $1,198,000 1,934 sq. ft. 2,178 sq. ft. $619
2018-03-14 Single Family Contemporary 769 22nd Street San Jose, CA 95116 $985,000 2,250 sq. ft. 3,920 sq. ft. $438
2018-03-14 Single Family 2174 Golden Dew Circle San Jose, CA 95121 $1,080,000 2,095 sq. ft. 6,098 sq. ft. $516
2018-03-14 Single Family Traditional 1186 Carnelian Drive San Jose, CA 95122 $715,000 1,036 sq. ft. 6,534 sq. ft. $690
2018-03-14 Single Family 714 Monroe Street San Jose, CA 95128 $999,000 1,366 sq. ft. 7,841 sq. ft. $731
2018-03-14 Single Family Victorian 360 5th Street San Jose, CA 95112 $928,000 1,320 sq. ft. 6,098 sq. ft. $703
2018-03-14 Single Family 2154 Stratton Place San Jose, CA 95131 $899,950 1,234 sq. ft. 7,405 sq. ft. $729
2018-03-14 Single Family 3314 Americus Drive San Jose, CA 95148 $1,098,000 1,824 sq. ft. 8,276 sq. ft. $602
2018-03-14 Single Family 4273 Vistapark Drive San Jose, CA 95136 $899,000 1,843 sq. ft. 6,534 sq. ft. $488
2018-03-14 Single Family 198 Benbow Avenue San Jose, CA 95123 $899,000 1,617 sq. ft. 5,227 sq. ft. $556
2018-03-14 Single Family 1555 Glencrest Drive San Jose, CA 95118 $1,050,000 1,407 sq. ft. 6,098 sq. ft. $746
2018-03-14 Single Family Tudor 1415 Hanchett Avenue San Jose, CA 95126 $1,198,000 1,562 sq. ft. 5,663 sq. ft. $767
2018-03-14 Single Family 1058 Redmond Avenue San Jose, CA 95120 $1,188,800 1,381 sq. ft. 6,534 sq. ft. $861
2018-03-14 Single Family Ranch; Traditional 1484 El Oso Drive San Jose, CA 95129 $1,549,000 1,759 sq. ft. 6,970 sq. ft. $881
2018-03-14 Single Family 1607 Pam Lane San Jose, CA 95120 $1,699,000 2,924 sq. ft. 8,276 sq. ft. $581
2018-03-14 Single Family 389 Henderson Drive San Jose, CA 95123 $1,210,000 1,750 sq. ft. 5,663 sq. ft. $691
2018-03-14 Single Family 2437 Beechwood Avenue San Jose, CA 95128 $1,549,000 1,650 sq. ft. 6,098 sq. ft. $939
2018-03-14 Single Family Ranch 1048 Cynthia Lane San Jose, CA 95129 $1,998,000 1,504 sq. ft. 7,405 sq. ft. $1,328
2018-03-14 Single Family 1593 Cherry Glen Way San Jose, CA 95125 $2,799,000 4,248 sq. ft. 14,375 sq. ft. $659
2018-03-14 Single Family 4356 Leigh Avenue San Jose, CA 95124 $948,000 1,212 sq. ft. 7,405 sq. ft. $782
2018-03-14 Single Family 2749 Valley Heights Drive San Jose, CA 95133 $959,000 1,787 sq. ft. 6,534 sq. ft. $537
2018-03-14 Single Family 2317 Constitution Drive San Jose, CA 95124 $1,799,000 2,566 sq. ft. 10,454 sq. ft. $701
2018-03-14 Single Family Traditional 4823 Basswood Court San Jose, CA 95124 $1,099,000 1,240 sq. ft. 6,970 sq. ft. $886
2018-03-14 Single Family 1115 Kelly Drive San Jose, CA 95129 $1,688,000 1,817 sq. ft. 6,534 sq. ft. $929
2018-03-14 Single Family 2372 Plateau Drive San Jose, CA 95125 $998,000 2,362 sq. ft. 1,742 sq. ft. $423
2018-03-14 Single Family Bungalow 1151 Norval Way San Jose, CA 95125 $1,450,000 1,386 sq. ft. 6,098 sq. ft. $1,046
2018-03-14 Single Family 1022 Corvette Drive San Jose, CA 95129 $3,580,000 3,645 sq. ft. 7,841 sq. ft. $982
2018-03-14 Single Family 3562 Millicent Court San Jose, CA 95148 $799,888 1,729 sq. ft. 6,534 sq. ft. $463
2018-03-14 Single Family 2398 Azevedo Parkway San Jose, CA 95125 $939,000 1,776 sq. ft. 1,742 sq. ft. $529
2018-03-14 Single Family Ranch 4882 Clarendon Drive San Jose, CA 95129 $1,598,000 1,492 sq. ft. 6,098 sq. ft. $1,071
2018-03-14 Single Family 6126 Via De Las Abejas San Jose, CA 95120 $1,599,800 2,970 sq. ft. 8,276 sq. ft. $539
2018-03-14 Single Family 1478 Hervey Lane San Jose, CA 95125 $2,395,000 2,461 sq. ft. 14,375 sq. ft. $973
2018-03-14 Single Family Traditional 503 Chinook Lane San Jose, CA 95123 $999,888 1,525 sq. ft. 5,663 sq. ft. $656
2018-03-13 Single Family Contemporary 3387 Rocky Mountain Drive San Jose, CA 95127 $699,000 1,271 sq. ft. 6,098 sq. ft. $550
2018-03-13 Single Family Contemporary; Custom 175 George Street San Jose, CA 95110 $995,000 1,496 sq. ft. 5,663 sq. ft. $665
2018-03-13 Single Family 1516 Scaraway Drive San Jose, CA 95132 $1,250,000 2,072 sq. ft. 6,098 sq. ft. $603
2018-03-13 Single Family 6846 Aintree Drive San Jose, CA 95119 $785,000 1,308 sq. ft. 6,098 sq. ft. $600
2018-03-13 Single Family 1246 University Avenue San Jose, CA 95126 $1,699,000 1,440 sq. ft. 10,019 sq. ft. $1,180
2018-03-13 Single Family 10331 Athene San Jose, CA 95127 $628,000 967 sq. ft. 5,227 sq. ft. $649
2018-03-13 Single Family Traditional 1727 Silverwood Drive San Jose, CA 95124 $1,325,000 1,608 sq. ft. 6,098 sq. ft. $824
2018-03-13 Single Family 14910 Mcvay Avenue San Jose, CA 95127 $920,000 1,324 sq. ft. 6,970 sq. ft. $695
2018-03-13 Single Family 20550 Buena Monte Drive San Jose, CA 95120 $2,778,000 3,120 sq. ft. 101,930 sq. ft. $890
2018-03-13 Single Family Contemporary 3348 San Saba Dr San Jose, CA 95148 $999,999 2,200 sq. ft. 6,098 sq. ft. $455
2018-03-13 Single Family Ranch 5183 Barron Park Drive San Jose, CA 95136 $949,000 1,698 sq. ft. 6,098 sq. ft. $559
2018-03-13 Single Family 1062 Hazelwood Avenue San Jose, CA 95125 $1,548,000 1,855 sq. ft. 5,663 sq. ft. $834
2018-03-13 Single Family Ranch 4640 Venice Way San Jose, CA 95129 $1,698,890 1,689 sq. ft. 6,970 sq. ft. $1,006
2018-03-13 Single Family 2618 Mozart Avenue San Jose, CA 95122 $899,000 1,617 sq. ft. 4,792 sq. ft. $556
2018-03-13 Single Family Contemporary 6952 Howden Court San Jose, CA 95119 $1,098,000 2,368 sq. ft. 9,583 sq. ft. $464
2018-03-13 Single Family Contemporary; Ranch 1506 Ilikai Avenue San Jose, CA 95118 $1,300,000 1,614 sq. ft. 6,534 sq. ft. $805
2018-03-13 Single Family 4599 Student Lane San Jose, CA 95130 $1,748,000 1,671 sq. ft. 6,970 sq. ft. $1,046
2018-03-13 Single Family 1452 Athenour Court San Jose, CA 95120 $1,498,890 2,717 sq. ft. 13,068 sq. ft. $552
2018-03-13 Single Family Ranch 878 Tallman Court San Jose, CA 95123 $879,000 1,465 sq. ft. 8,712 sq. ft. $600
2018-03-13 Single Family 4980 Avery Court San Jose, CA 95136 $900,000 1,330 sq. ft. 6,970 sq. ft. $677
2018-03-13 Single Family 545 22nd Street San Jose, CA 95116 $949,000 2,041 sq. ft. 4,356 sq. ft. $465
2018-03-13 Single Family Ranch 5081 Bobbie Avenue San Jose, CA 95130 $1,498,000 1,433 sq. ft. 6,534 sq. ft. $1,045
2018-03-13 Single Family 2412 Lucerne Way San Jose, CA 95122 $745,000 1,353 sq. ft. 5,227 sq. ft. $551
2018-03-13 Single Family 6134 Ellerbrook Way San Jose, CA 95123 $948,000 1,520 sq. ft. 6,098 sq. ft. $624
2018-03-13 Single Family 421 Branham Lane San Jose, CA 95111 $629,000 1,332 sq. ft. 2,614 sq. ft. $472
2018-03-13 Single Family 103 26th Street San Jose, CA 95116 $999,000 1,762 sq. ft. 5,227 sq. ft. $567
2018-03-13 Single Family Contemporary 1269 Hazlett Court San Jose, CA 95131 $1,199,950 1,918 sq. ft. 3,920 sq. ft. $626
2018-03-13 Single Family 15278 Cooper Avenue San Jose, CA 95124 $1,699,000 2,167 sq. ft. 9,148 sq. ft. $784
2018-03-12 Single Family Traditional 1191 Montmorency Drive San Jose, CA 95118 $1,338,000 2,369 sq. ft. 6,534 sq. ft. $565
2018-03-12 Single Family 1473 Farringdon Drive San Jose, CA 95127 $650,000 1,043 sq. ft. 6,534 sq. ft. $623
2018-03-12 Single Family Cottage 737 Myrtle Street San Jose, CA 95126 $1,400,000 2,112 sq. ft. 5,227 sq. ft. $663
2018-03-12 Single Family 4860 Aspen Court San Jose, CA 95124 $1,199,000 1,240 sq. ft. 5,663 sq. ft. $967
2018-03-12 Single Family 1145 Park Avenue San Jose, CA 95126 $1,199,890 1,580 sq. ft. 8,712 sq. ft. $759
2018-03-12 Single Family 499 Paiute Lane San Jose, CA 95123 $988,888 1,208 sq. ft. 6,098 sq. ft. $819
2018-03-12 Single Family 6668 Leyland Park Drive San Jose, CA 95120 $1,699,960 2,453 sq. ft. 13,939 sq. ft. $693
2018-03-12 Single Family 4512 Bolero Drive San Jose, CA 95111 $789,000 1,137 sq. ft. 5,227 sq. ft. $694
2018-03-12 Single Family 8887 Wine Valley Circle San Jose, CA 95135 $1,149,000 2,256 sq. ft. 5,227 sq. ft. $509
2018-03-12 Single Family 1155 Washoe Drive San Jose, CA 95120 $1,700,000 2,415 sq. ft. 8,276 sq. ft. $704
2018-03-12 Single Family Ranch 4012 San Simeon Way San Jose, CA 95111 $699,000 1,123 sq. ft. 5,227 sq. ft. $622
2018-03-12 Single Family Ranch 1728 Ewer Drive San Jose, CA 95124 $1,299,000 1,190 sq. ft. 6,534 sq. ft. $1,092
2018-03-11 Single Family 4215 Colombo Drive San Jose, CA 95130 $1,199,900 1,368 sq. ft. 9,148 sq. ft. $877
2018-03-11 Single Family Ranch 15183 Charmeran Avenue San Jose, CA 95124 $1,085,000 1,292 sq. ft. 8,276 sq. ft. $840
2018-03-11 Single Family 726 Harding Avenue San Jose, CA 95126 $990,000 1,326 sq. ft. 6,098 sq. ft. $747
2018-03-11 Single Family 405 Ariel Drive San Jose, CA 95123 $825,000 1,495 sq. ft. 6,098 sq. ft. $552
2018-03-10 Single Family 742 Sirica Court San Jose, CA 95138 $1,400,000 2,753 sq. ft. 4,792 sq. ft. $509
2018-03-10 Single Family Contemporary 6432 Standridge Court San Jose, CA 95123 $1,099,000 1,868 sq. ft. 6,098 sq. ft. $588
2018-03-10 Single Family 1220 Curtiss Avenue San Jose, CA 95125 $1,798,000 1,360 sq. ft. 18,295 sq. ft. $1,322
2018-03-09 Single Family Contemporary 3082 Peppermint Drive San Jose, CA 95148 $728,000 1,004 sq. ft. 6,098 sq. ft. $725
2018-03-09 Single Family 1017 Daniel Way San Jose, CA 95128 $1,398,000 2,551 sq. ft. 10,454 sq. ft. $548
2018-03-09 Single Family 1648 Wheatley Place San Jose, CA 95121 $1,400,000 2,417 sq. ft. 6,098 sq. ft. $579
2018-03-09 Single Family Contemporary 943 Camellia Way San Jose, CA 95117 $1,299,000 1,709 sq. ft. 6,098 sq. ft. $760
2018-03-09 Single Family 7071 Wooded Lake Drive San Jose, CA 95120 $2,550,000 3,450 sq. ft. 23,087 sq. ft. $739
2018-03-09 Single Family 2194 Westmoreland Drive San Jose, CA 95124 $1,599,000 2,397 sq. ft. 8,276 sq. ft. $667
2018-03-09 Single Family 1556 Ilikai Avenue San Jose, CA 95118 $1,285,000 1,873 sq. ft. 6,970 sq. ft. $686
2018-03-09 Single Family 6172 Cahalan Avenue San Jose, CA 95123 $849,999 1,374 sq. ft. 7,405 sq. ft. $619
2018-03-09 Single Family 544 Hassinger Road San Jose, CA 95111 $878,000 1,844 sq. ft. 7,405 sq. ft. $476
2018-03-09 Single Family 4347 Montmorency Court San Jose, CA 95118 $1,199,950 1,457 sq. ft. 6,098 sq. ft. $824
2018-03-09 Single Family 2082 Quito Road San Jose, CA 95130 $1,298,000 1,544 sq. ft. 6,534 sq. ft. $841
2018-03-09 Single Family 3870 Aborn Road San Jose, CA 95135 $1,398,000 4,170 sq. ft. 47,916 sq. ft. $335
2018-03-08 Single Family 581 Edelweiss Drive San Jose, CA 95136 $836,000 1,400 sq. ft. 6,970 sq. ft. $597
2018-03-08 Single Family 7381 Pawtucket Way San Jose, CA 95139 $955,888 1,822 sq. ft. 6,098 sq. ft. $525
2018-03-08 Single Family 3494 Woodside Lane San Jose, CA 95121 $825,000 1,276 sq. ft. 6,534 sq. ft. $647
2018-03-08 Single Family Ranch 1163 Dean Avenue San Jose, CA 95125 $1,099,000 1,100 sq. ft. 6,098 sq. ft. $999
2018-03-08 Single Family 1594 Piedmont Road San Jose, CA 95132 $1,128,000 1,320 sq. ft. 6,970 sq. ft. $855
2018-03-08 Single Family 1323 Hillcrest Drive San Jose, CA 95120 $1,699,000 2,248 sq. ft. 12,632 sq. ft. $756
2018-03-08 Single Family 1331 Vernal Drive San Jose, CA 95130 $1,299,000 1,600 sq. ft. 6,098 sq. ft. $812
2018-03-08 Single Family Traditional 14800 Berry Way San Jose, CA 95124 $1,999,000 3,345 sq. ft. 9,148 sq. ft. $598
2018-03-08 Single Family 6222 Mojave Drive San Jose, CA 95120 $1,499,000 2,323 sq. ft. 9,148 sq. ft. $645
2018-03-08 Single Family Contemporary; Ranch 1712 Silverwood Drive San Jose, CA 95124 $1,298,000 1,889 sq. ft. 6,098 sq. ft. $687
2018-03-08 Single Family Ranch; Traditional 14892 Sutton Drive San Jose, CA 95124 $1,675,000 2,220 sq. ft. 11,326 sq. ft. $754
2018-03-08 Single Family 14166 Lucian Avenue San Jose, CA 95127 $749,000 1,516 sq. ft. 5,663 sq. ft. $494
2018-03-08 Single Family 1915 Perrone Circle San Jose, CA 95116 $868,000 1,525 sq. ft. 3,920 sq. ft. $569
2018-03-08 Single Family Ranch 1112 Greenbriar Avenue San Jose, CA 95128 $1,388,800 1,714 sq. ft. 6,098 sq. ft. $810
2018-03-08 Single Family 7195 Wooded Lake Drive San Jose, CA 95120 $3,200,000 5,750 sq. ft. 27,878 sq. ft. $557
2018-03-08 Single Family 1060 Durness Place San Jose, CA 95122 $879,950 1,417 sq. ft. 10,890 sq. ft. $621
2018-03-08 Single Family 1578 Via Campo Verde San Jose, CA 95120 $1,488,000 2,341 sq. ft. 6,534 sq. ft. $636
2018-03-08 Single Family Bungalow 181 Cleaves Avenue San Jose, CA 95126 $1,050,000 1,395 sq. ft. 6,098 sq. ft. $753
2018-03-08 Single Family 901 Kingfisher Drive San Jose, CA 95125 $950,000 1,302 sq. ft. 6,534 sq. ft. $730
2018-03-08 Single Family Ranch 5149 Betlo Court San Jose, CA 95130 $1,688,000 1,700 sq. ft. 6,970 sq. ft. $993
2018-03-08 Single Family 482 12th Street San Jose, CA 95112 $799,000 1,132 sq. ft. 5,663 sq. ft. $706
2018-03-08 Single Family 22 Finchwell Court San Jose, CA 95138 $948,000 1,979 sq. ft. 6,098 sq. ft. $479
2018-03-08 Single Family 3075 Olivewood Place San Jose, CA 95148 $1,200,000 1,931 sq. ft. 6,098 sq. ft. $621
2018-03-08 Single Family 3419 Kirkwood Drive San Jose, CA 95117 $1,499,000 2,247 sq. ft. 7,841 sq. ft. $667
2018-03-08 Single Family 3235 Pinot Blanc Way San Jose, CA 95135 $1,749,950 3,120 sq. ft. 10,019 sq. ft. $561
2018-03-08 Single Family 5821 Castano Drive San Jose, CA 95129 $2,190,000 2,082 sq. ft. 6,098 sq. ft. $1,052
2018-03-07 Single Family 15767 Highland Drive San Jose, CA 95127 $1,325,000 3,212 sq. ft. 9,583 sq. ft. $413
2018-03-07 Single Family 1894 Terilyn Avenue San Jose, CA 95122 $669,000 1,040 sq. ft. 4,792 sq. ft. $643
2018-03-07 Single Family Ranch 7148 Via Carmela San Jose, CA 95139 $899,888 1,390 sq. ft. 6,098 sq. ft. $647
2018-03-07 Single Family 3230 Maple Leaf Court San Jose, CA 95121 $900,000 1,904 sq. ft. 4,356 sq. ft. $473
2018-03-07 Single Family 3554 Pine Ridge Way San Jose, CA 95127 $799,000 1,424 sq. ft. 8,712 sq. ft. $561
2018-03-07 Single Family Traditional 6545 Kaneko Drive San Jose, CA 95119 $829,000 1,137 sq. ft. 6,098 sq. ft. $729
2018-03-07 Single Family Ranch 1390 Lansing Avenue San Jose, CA 95118 $989,000 1,408 sq. ft. 6,098 sq. ft. $702
2018-03-07 Single Family 3153 Heritage Estates Court San Jose, CA 95148 $1,049,000 1,606 sq. ft. 6,970 sq. ft. $653
2018-03-07 Single Family Traditional 6535 Catamaran Street San Jose, CA 95119 $1,198,000 2,794 sq. ft. 6,098 sq. ft. $429
2018-03-07 Single Family 4868 Mary Jane Way San Jose, CA 95124 $1,158,000 1,110 sq. ft. 6,534 sq. ft. $1,043
2018-03-07 Single Family 1769 Oakwood Avenue San Jose, CA 95124 $1,249,000 1,415 sq. ft. 8,276 sq. ft. $883
2018-03-07 Single Family Ranch 1829 Lencar Way San Jose, CA 95124 $1,288,000 1,040 sq. ft. 6,098 sq. ft. $1,238
2018-03-07 Single Family 4227 Chaboya Court San Jose, CA 95148 $3,588,000 8,314 sq. ft. 148,104 sq. ft. $432
2018-03-07 Single Family Contemporary 1923 Camden Avenue San Jose, CA 95124 $1,139,890 1,300 sq. ft. 6,098 sq. ft. $877
2018-03-07 Single Family 1196 Yosemite Avenue San Jose, CA 95126 $1,199,000 1,968 sq. ft. 6,970 sq. ft. $609
2018-03-07 Single Family Ranch 4196 Ridgebrook Way San Jose, CA 95111 $599,000 891 sq. ft. 6,534 sq. ft. $672
2018-03-07 Single Family 467 Mayellen Avenue San Jose, CA 95126 $629,000 966 sq. ft. 6,534 sq. ft. $651
2018-03-07 Single Family 5857 Chesbro Avenue San Jose, CA 95123 $898,000 1,516 sq. ft. 6,534 sq. ft. $592
2018-03-07 Single Family Ranch 5554 Harvard Drive San Jose, CA 95118 $999,000 1,252 sq. ft. 6,534 sq. ft. $798
2018-03-07 Single Family Ranch 2798 Custer Drive San Jose, CA 95124 $1,199,000 1,817 sq. ft. 8,712 sq. ft. $660
2018-03-07 Single Family Ranch 7045 Via Anacapa San Jose, CA 95139 $879,000 1,742 sq. ft. 6,098 sq. ft. $505
2018-03-07 Single Family 6134 Lean Avenue San Jose, CA 95123 $999,000 1,143 sq. ft. 6,098 sq. ft. $874
2018-03-07 Single Family Contemporary 3312 Todd Way San Jose, CA 95124 $1,180,000 1,610 sq. ft. 7,405 sq. ft. $733
2018-03-07 Single Family 3116 Linkfield Way San Jose, CA 95135 $1,278,000 2,023 sq. ft. 8,276 sq. ft. $632
2018-03-07 Single Family 2402 Fairglen Drive San Jose, CA 95125 $1,499,000 1,672 sq. ft. 6,098 sq. ft. $897
2018-03-07 Single Family Farm House 1703 Laurelwood Drive San Jose, CA 95125 $3,199,000 3,776 sq. ft. 10,890 sq. ft. $847
2018-03-07 Single Family 6568 Bison Court San Jose, CA 95119 $899,000 1,137 sq. ft. 6,098 sq. ft. $791
2018-03-07 Single Family Ranch 2036 Cherrystone Drive San Jose, CA 95128 $1,149,000 1,559 sq. ft. 6,970 sq. ft. $737
2018-03-07 Single Family English 1668 Juanita Avenue San Jose, CA 95125 $1,298,000 1,325 sq. ft. 5,227 sq. ft. $980
2018-03-07 Single Family Craftsman 1007 Broadway Avenue San Jose, CA 95125 $2,125,000 2,870 sq. ft. 6,534 sq. ft. $740
2018-03-07 Single Family Traditional 3116 Linkfield Way San Jose, CA 95135 $1,278,000 2,023 sq. ft. 7,841 sq. ft. $632
2018-03-07 Single Family Traditional 6201 Lillian Way San Jose, CA 95120 $1,250,000 1,468 sq. ft. 6,534 sq. ft. $852
2018-03-07 Single Family 909 Copal Court San Jose, CA 95127 $749,950 1,075 sq. ft. 5,663 sq. ft. $698
2018-03-07 Single Family 1590 Minardi Avenue San Jose, CA 95125 $1,199,000 1,265 sq. ft. 10,890 sq. ft. $948
2018-03-07 Single Family 1786 Lincoln Avenue San Jose, CA 95125 $1,249,000 1,851 sq. ft. 6,098 sq. ft. $675
2018-03-07 Single Family 1072 Bennett Way San Jose, CA 95125 $1,349,000 1,470 sq. ft. 5,663 sq. ft. $918
2018-03-07 Single Family 1748 Harte Drive San Jose, CA 95124 $1,399,000 2,029 sq. ft. 7,405 sq. ft. $690
2018-03-06 Single Family Ranch 1099 Kelly Drive San Jose, CA 95129 $1,388,000 1,193 sq. ft. 6,534 sq. ft. $1,163
2018-03-06 Single Family Mediterranean 1645 The Alameda San Jose, CA 95126 $2,700,000 5,459 sq. ft. 17,424 sq. ft. $495
2018-03-06 Single Family 5810 Blossom Avenue San Jose, CA 95123 $824,999 1,200 sq. ft. 6,098 sq. ft. $688
2018-03-06 Single Family Ranch 1410 Maria Way San Jose, CA 95117 $1,298,000 1,382 sq. ft. 6,098 sq. ft. $939
2018-03-06 Single Family Craftsman 1653 Arbor Drive San Jose, CA 95125 $2,399,000 3,289 sq. ft. 7,405 sq. ft. $729
2018-03-06 Single Family Ranch 1088 Corvette Drive San Jose, CA 95129 $1,798,000 1,551 sq. ft. 6,098 sq. ft. $1,159
2018-03-06 Single Family 1741 Terilyn Avenue San Jose, CA 95122 $649,950 960 sq. ft. 4,792 sq. ft. $677
2018-03-06 Single Family Traditional 130 26th Street San Jose, CA 95116 $725,000 1,616 sq. ft. 4,792 sq. ft. $449
2018-03-06 Single Family 4015 Forestbrook Way San Jose, CA 95111 $728,000 1,139 sq. ft. 6,098 sq. ft. $639
2018-03-06 Single Family 3949 Teale Avenue San Jose, CA 95117 $1,280,000 1,466 sq. ft. 6,534 sq. ft. $873
2018-03-06 Single Family 281 Kirk Avenue San Jose, CA 95127 $699,000 1,365 sq. ft. 7,405 sq. ft. $512
2018-03-06 Single Family 411 Ariel Drive San Jose, CA 95123 $949,000 1,342 sq. ft. 6,098 sq. ft. $707
2018-03-06 Single Family Contemporary 5911 Silver Leaf Road San Jose, CA 95138 $975,000 1,987 sq. ft. 5,663 sq. ft. $491
2018-03-06 Single Family Bungalow 196 Claremont Avenue San Jose, CA 95127 $675,000 1,300 sq. ft. 10,890 sq. ft. $519
2018-03-06 Single Family Craftsman 812 14th Street San Jose, CA 95112 $728,000 988 sq. ft. 5,227 sq. ft. $737
2018-03-06 Single Family 275 Copco Lane San Jose, CA 95123 $899,999 1,830 sq. ft. 6,098 sq. ft. $492
2018-03-06 Single Family 7180 Via Carmela San Jose, CA 95139 $935,000 1,758 sq. ft. 6,098 sq. ft. $532
2018-03-06 Single Family 1364 Carrie Lee Way San Jose, CA 95118 $999,888 2,199 sq. ft. 8,276 sq. ft. $455
2018-03-06 Single Family 5993 Montalvo Drive San Jose, CA 95123 $999,999 2,074 sq. ft. 6,098 sq. ft. $482
2018-03-06 Single Family 1335 Singletary Avenue San Jose, CA 95126 $1,349,000 1,539 sq. ft. 5,663 sq. ft. $877
2018-03-06 Single Family Ranch 4504 Bucknall Road San Jose, CA 95130 $1,398,000 1,127 sq. ft. 6,098 sq. ft. $1,240
2018-03-06 Single Family Traditional 1475 Lamore Drive San Jose, CA 95130 $1,488,000 2,333 sq. ft. 7,405 sq. ft. $638
2018-03-06 Single Family Craftsman 1355 Bird Avenue San Jose, CA 95125 $1,590,000 2,411 sq. ft. 6,534 sq. ft. $659
2018-03-06 Single Family 6611 Leyland Park Drive San Jose, CA 95120 $1,880,000 3,341 sq. ft. 15,246 sq. ft. $563
2018-03-06 Single Family 5825 Vargas Court San Jose, CA 95120 $1,399,000 1,870 sq. ft. 8,276 sq. ft. $748
2018-03-06 Single Family 6221 Balderstone Drive San Jose, CA 95120 $1,429,110 2,350 sq. ft. 6,970 sq. ft. $608
2018-03-06 Single Family Ranch 2168 Blossom Crest Way San Jose, CA 95124 $1,475,000 1,332 sq. ft. 8,276 sq. ft. $1,107
2018-03-06 Single Family Ranch 1212 Avalon Drive San Jose, CA 95125 $1,895,000 3,000 sq. ft. 12,197 sq. ft. $632
2018-03-06 Single Family 3357 Cropley Court San Jose, CA 95132 $1,125,000 1,786 sq. ft. 6,970 sq. ft. $630
2018-03-06 Single Family 3335 Lynn Oaks Drive San Jose, CA 95117 $1,498,000 1,917 sq. ft. 6,970 sq. ft. $781
2018-03-06 Single Family 2367 Booksin Avenue San Jose, CA 95125 $1,498,000 1,672 sq. ft. 6,098 sq. ft. $896
2018-03-05 Single Family 1294 San Fernando Street San Jose, CA 95116 $635,000 1,251 sq. ft. 5,227 sq. ft. $508
2018-03-05 Single Family Ranch 1277 Mich Bluff Drive San Jose, CA 95131 $778,000 846 sq. ft. 6,970 sq. ft. $920
2018-03-05 Single Family 17 Via Mesa San Jose, CA 95139 $899,888 1,494 sq. ft. 6,970 sq. ft. $602
2018-03-05 Single Family 7121 Echo Loop San Jose, CA 95120 $2,945,000 4,490 sq. ft. 21,780 sq. ft. $656
2018-03-05 Single Family 2912 Moss Point Drive San Jose, CA 95127 $730,000 1,094 sq. ft. 7,405 sq. ft. $667
2018-03-04 Single Family 5034 Edenview Drive San Jose, CA 95111 $797,888 1,704 sq. ft. 5,663 sq. ft. $468
2018-03-03 Single Family 3550 Slopeview Drive San Jose, CA 95148 $1,075,000 1,528 sq. ft. 9,583 sq. ft. $704
2018-03-03 Single Family 2433 La Mirada Drive San Jose, CA 95125 $1,399,000 1,554 sq. ft. 6,534 sq. ft. $900
2018-03-03 Single Family 1666 Matson Drive San Jose, CA 95124 $945,000 1,172 sq. ft. 4,792 sq. ft. $806
2018-03-02 Single Family 854 14th Street San Jose, CA 95112 $585,000 1,049 sq. ft. 5,227 sq. ft. $558
2018-03-02 Single Family 1546 Mackey Avenue San Jose, CA 95125 $1,099,000 1,274 sq. ft. 6,534 sq. ft. $863
2018-03-02 Single Family 6400 Camden Avenue San Jose, CA 95120 $1,259,000 1,850 sq. ft. 10,019 sq. ft. $681
2018-03-02 Single Family 554 Fisk Avenue San Jose, CA 95125 $1,450,000 2,552 sq. ft. 7,405 sq. ft. $568
2018-03-02 Single Family Ranch 3579 Pitcairn Way San Jose, CA 95111 $698,500 1,110 sq. ft. 5,227 sq. ft. $629
2018-03-02 Single Family Ranch 328 Surber Drive San Jose, CA 95123 $975,000 1,683 sq. ft. 6,970 sq. ft. $579
2018-03-02 Single Family Ranch 6317 Bancroft Way San Jose, CA 95129 $1,648,000 1,133 sq. ft. 6,098 sq. ft. $1,455
2018-03-02 Single Family 3057 Oliver Drive San Jose, CA 95135 $1,950,000 3,705 sq. ft. 9,583 sq. ft. $526
2018-03-02 Single Family Mediterranean 1930 Kocher Drive San Jose, CA 95125 $2,795,000 4,623 sq. ft. 12,632 sq. ft. $605
2018-03-02 Single Family 1237 Renraw Drive San Jose, CA 95127 $1,499,000 2,767 sq. ft. 43,996 sq. ft. $542
2018-03-02 Single Family Bungalow 1149 6th Street San Jose, CA 95112 $749,000 1,140 sq. ft. 5,663 sq. ft. $657
2018-03-02 Single Family 1691 King Road San Jose, CA 95122 $715,888 1,121 sq. ft. 5,663 sq. ft. $639
2018-03-02 Single Family 494 Rutland Avenue San Jose, CA 95128 $899,000 962 sq. ft. 8,276 sq. ft. $935
2018-03-02 Single Family Contemporary 3544 Madrid Drive San Jose, CA 95132 $1,189,000 1,713 sq. ft. 6,098 sq. ft. $694
2018-03-02 Single Family Contemporary 5088 Joseph Lane San Jose, CA 95118 $1,488,000 2,196 sq. ft. 6,534 sq. ft. $678
2018-03-02 Single Family 927 Roosevelt Street San Jose, CA 95112 $668,888 799 sq. ft. 4,792 sq. ft. $837
2018-03-02 Single Family Traditional 1480 Mount Stanley Way San Jose, CA 95127 $680,000 1,198 sq. ft. 5,663 sq. ft. $568
2018-03-02 Single Family Ranch 3178 Manda Drive San Jose, CA 95124 $849,000 1,060 sq. ft. 5,227 sq. ft. $801
2018-03-02 Single Family 1503 Little Orchard Street San Jose, CA 95110 $899,999 1,452 sq. ft. 6,098 sq. ft. $620
2018-03-02 Single Family 806 Altino Boulevard San Jose, CA 95136 $938,000 1,757 sq. ft. 1,742 sq. ft. $534
2018-03-02 Single Family Ranch 2935 Valhalla Drive San Jose, CA 95132 $1,099,000 1,857 sq. ft. 6,098 sq. ft. $592
2018-03-02 Single Family 757 Pine Avenue San Jose, CA 95125 $1,299,000 1,470 sq. ft. 6,534 sq. ft. $884
2018-03-02 Single Family 1307 Teresita Drive San Jose, CA 95129 $1,595,000 1,346 sq. ft. 6,098 sq. ft. $1,185
2018-03-02 Single Family Traditional 6561 Fall River Drive San Jose, CA 95120 $1,695,000 2,574 sq. ft. 9,148 sq. ft. $659
2018-03-02 Single Family 13657 Marmont Way San Jose, CA 95127 $749,000 1,060 sq. ft. 5,663 sq. ft. $707
2018-03-01 Single Family 4891 Alex Drive San Jose, CA 95130 $1,295,000 1,256 sq. ft. 5,663 sq. ft. $1,031
2018-03-01 Single Family Bungalow; Traditional 211 Cleveland Avenue San Jose, CA 95126 $975,000 1,120 sq. ft. 9,148 sq. ft. $871
2018-03-01 Single Family 22501 San Vicente Avenue San Jose, CA 95120 $999,999 1,945 sq. ft. 39,204 sq. ft. $514
2018-03-01 Single Family Contemporary 1020 Cheswick Drive San Jose, CA 95121 $885,000 1,865 sq. ft. 6,098 sq. ft. $475
2018-03-01 Single Family 3259 Trebol Lane San Jose, CA 95148 $999,000 2,098 sq. ft. 6,098 sq. ft. $476
2018-03-01 Single Family Contemporary; Traditional 957 Windsor Hills Circle San Jose, CA 95123 $1,088,800 2,045 sq. ft. 3,049 sq. ft. $532
2018-03-01 Single Family 1794 Seville Way San Jose, CA 95131 $1,158,000 1,877 sq. ft. 6,970 sq. ft. $617
2018-03-01 Single Family 14839 Bronson San Jose, CA 95124 $1,249,000 2,200 sq. ft. 9,583 sq. ft. $568
2018-03-01 Single Family Mediterranean 5943 Foligno Way San Jose, CA 95138 $1,998,000 2,920 sq. ft. 9,583 sq. ft. $684
2018-03-01 Single Family 37 Dale Drive San Jose, CA 95127 $620,000 984 sq. ft. 4,792 sq. ft. $630
2018-03-01 Single Family Contemporary 3349 Densmore Court San Jose, CA 95148 $1,098,000 1,740 sq. ft. 7,841 sq. ft. $631
2018-03-01 Single Family Mediterranean 2612 Meadowleaf Court San Jose, CA 95135 $2,000,000 3,423 sq. ft. 30,928 sq. ft. $584
2018-03-01 Single Family 1160 Camano Court San Jose, CA 95122 $749,000 1,155 sq. ft. 5,227 sq. ft. $648
2018-03-01 Single Family 150 Arroyo Way San Jose, CA 95112 $979,000 1,300 sq. ft. 18,295 sq. ft. $753
2018-03-01 Single Family 218 Paraiso Court San Jose, CA 95119 $999,000 1,843 sq. ft. 6,534 sq. ft. $542
2018-03-01 Single Family Traditional 3254 Maple Leaf Court San Jose, CA 95121 $849,900 1,715 sq. ft. 4,792 sq. ft. $496
2018-03-01 Single Family Ranch 1389 Annapolis Way San Jose, CA 95118 $999,950 1,408 sq. ft. 6,098 sq. ft. $710
2018-03-01 Single Family 1904 Creek Drive San Jose, CA 95125 $2,599,000 3,506 sq. ft. 10,454 sq. ft. $741
2018-03-01 Single Family 352 Jerome Street San Jose, CA 95125 $928,000 2,020 sq. ft. 5,227 sq. ft. $459
2018-03-01 Single Family 14830 Watters Drive San Jose, CA 95127 $995,000 1,970 sq. ft. 34,412 sq. ft. $505
2018-03-01 Single Family 5604 Doorn Lane San Jose, CA 95118 $1,175,000 1,252 sq. ft. 7,405 sq. ft. $938
2018-03-01 Single Family Craftsman 1242 Minnesota Avenue San Jose, CA 95125 $1,288,000 1,795 sq. ft. 6,970 sq. ft. $718
2018-03-01 Single Family 1773 Dalton Place San Jose, CA 95124 $1,399,000 2,258 sq. ft. 5,663 sq. ft. $620
2018-03-01 Single Family 1521 Cameo Drive San Jose, CA 95129 $1,488,000 1,238 sq. ft. 6,534 sq. ft. $1,202
2018-02-28 Single Family 5418 Club Dr San Jose, CA 95127 $768,950 1,376 sq. ft. 8,276 sq. ft. $559
2018-02-28 Single Family Contemporary; Ranch 1580 Amesbury Way San Jose, CA 95127 $795,000 1,687 sq. ft. 5,227 sq. ft. $471
2018-02-28 Single Family 4446 Stone Canyon Drive San Jose, CA 95136 $924,888 1,901 sq. ft. 7,405 sq. ft. $487
2018-02-28 Single Family 1040 Belder Drive San Jose, CA 95120 $1,499,000 2,316 sq. ft. 7,841 sq. ft. $647
2018-02-28 Single Family Contemporary 1683 Marco Way San Jose, CA 95131 $1,080,000 1,486 sq. ft. 3,920 sq. ft. $727
2018-02-28 Single Family Cape Cod; Colonial; Custom; Farm House; Traditional 4631 Piper Drive San Jose, CA 95129 $1,750,000 1,550 sq. ft. 6,098 sq. ft. $1,129
2018-02-28 Single Family 5418 Club Dr San Jose, CA 95127 $768,950 1,376 sq. ft. 8,276 sq. ft. $559
2018-02-28 Single Family 6922 Rockton Avenue San Jose, CA 95119 $1,138,000 2,547 sq. ft. 7,405 sq. ft. $447
2018-02-28 Single Family 3078 Serpa Drive Drive San Jose, CA 95148 $1,124,890 2,160 sq. ft. 6,534 sq. ft. $521
2018-02-28 Single Family 620 Fenley Avenue San Jose, CA 95117 $1,050,000 1,284 sq. ft. 8,276 sq. ft. $818
2018-02-28 Single Family 1046 Redmond Avenue San Jose, CA 95120 $1,300,000 1,661 sq. ft. 6,098 sq. ft. $783
2018-02-28 Single Family 2592 Briarwood Drive San Jose, CA 95125 $1,249,000 1,821 sq. ft. 6,534 sq. ft. $686
2018-02-28 Single Family 1005 4th Street San Jose, CA 95112 $1,300,000 1,776 sq. ft. 8,712 sq. ft. $732
2018-02-28 Single Family 6368 Ivy Lane San Jose, CA 95129 $2,048,000 2,021 sq. ft. 6,098 sq. ft. $1,013
2018-02-28 Single Family Ranch 13 Kittery Court San Jose, CA 95139 $919,000 1,286 sq. ft. 10,454 sq. ft. $715
2018-02-28 Single Family Ranch 1364 Via De Los Reyes San Jose, CA 95120 $1,469,000 1,765 sq. ft. 8,276 sq. ft. $832
2018-02-28 Single Family 5717 San Lorenzo Drive San Jose, CA 95123 $849,000 1,530 sq. ft. 6,098 sq. ft. $555
2018-02-28 Single Family 1787 Coastland Avenue San Jose, CA 95125 $1,550,000 1,707 sq. ft. 6,534 sq. ft. $908
2018-02-28 Single Family 1355 Winona Drive San Jose, CA 95125 $1,575,000 2,339 sq. ft. 7,405 sq. ft. $673
2018-02-28 Single Family 1195 Settle Avenue San Jose, CA 95125 $1,975,000 2,646 sq. ft. 5,227 sq. ft. $746
2018-02-28 Single Family 152 Herlong Avenue San Jose, CA 95123 $848,000 1,400 sq. ft. 5,663 sq. ft. $606
2018-02-28 Single Family 5341 Pebbletree Way San Jose, CA 95111 $849,950 1,415 sq. ft. 6,098 sq. ft. $601
2018-02-27 Single Family 288 Cragmont Avenue San Jose, CA 95127 $749,888 1,243 sq. ft. 5,227 sq. ft. $603
2018-02-27 Single Family 4943 Zeppelin Court San Jose, CA 95111 $983,000 1,954 sq. ft. 6,970 sq. ft. $503
2018-02-27 Single Family Tudor 538 Page Street San Jose, CA 95126 $927,800 1,298 sq. ft. 7,405 sq. ft. $715